sensor_id;sensor_type;location;lat;lon;timestamp;P1;durP1;ratioP1;P2;durP2;ratioP2
12151;SDS011;6139;51.274;7.128;2023-03-01T00:00:30;8.23;;;6.03;;
12151;SDS011;6139;51.274;7.128;2023-03-01T00:01:33;8.03;;;6.03;;
12151;SDS011;6139;51.274;7.128;2023-03-01T00:02:35;6.50;;;5.90;;
12151;SDS011;6139;51.274;7.128;2023-03-01T00:03:36;8.17;;;6.13;;
12151;SDS011;6139;51.274;7.128;2023-03-01T00:04:38;7.67;;;6.20;;
12151;SDS011;6139;51.274;7.128;2023-03-01T00:05:43;6.57;;;5.87;;
12151;SDS011;6139;51.274;7.128;2023-03-01T00:06:45;7.30;;;6.03;;
12151;SDS011;6139;51.274;7.128;2023-03-01T00:07:46;8.20;;;6.17;;
12151;SDS011;6139;51.274;7.128;2023-03-01T00:08:48;7.63;;;6.10;;
12151;SDS011;6139;51.274;7.128;2023-03-01T00:09:50;7.60;;;6.00;;
12151;SDS011;6139;51.274;7.128;2023-03-01T00:10:59;8.07;;;6.53;;
12151;SDS011;6139;51.274;7.128;2023-03-01T00:12:01;7.37;;;6.30;;
12151;SDS011;6139;51.274;7.128;2023-03-01T00:13:03;9.20;;;6.63;;
12151;SDS011;6139;51.274;7.128;2023-03-01T00:14:05;10.93;;;6.40;;
12151;SDS011;6139;51.274;7.128;2023-03-01T00:15:07;7.10;;;5.93;;
12151;SDS011;6139;51.274;7.128;2023-03-01T00:16:09;9.83;;;6.90;;
12151;SDS011;6139;51.274;7.128;2023-03-01T00:17:14;8.10;;;6.50;;
12151;SDS011;6139;51.274;7.128;2023-03-01T00:18:15;7.47;;;6.67;;
12151;SDS011;6139;51.274;7.128;2023-03-01T00:19:18;8.40;;;5.90;;
12151;SDS011;6139;51.274;7.128;2023-03-01T00:20:19;6.80;;;5.90;;
12151;SDS011;6139;51.274;7.128;2023-03-01T00:21:22;6.90;;;6.07;;
12151;SDS011;6139;51.274;7.128;2023-03-01T00:22:23;6.70;;;6.00;;
12151;SDS011;6139;51.274;7.128;2023-03-01T00:23:28;8.53;;;6.50;;
12151;SDS011;6139;51.274;7.128;2023-03-01T00:24:29;7.90;;;6.97;;
12151;SDS011;6139;51.274;7.128;2023-03-01T00:25:31;7.17;;;6.40;;
12151;SDS011;6139;51.274;7.128;2023-03-01T00:26:32;8.13;;;6.47;;
12151;SDS011;6139;51.274;7.128;2023-03-01T00:27:34;6.87;;;5.80;;
12151;SDS011;6139;51.274;7.128;2023-03-01T00:28:35;10.57;;;6.07;;
12151;SDS011;6139;51.274;7.128;2023-03-01T00:29:37;7.10;;;6.10;;
12151;SDS011;6139;51.274;7.128;2023-03-01T00:30:38;7.27;;;6.53;;
12151;SDS011;6139;51.274;7.128;2023-03-01T00:31:40;8.60;;;6.60;;
12151;SDS011;6139;51.274;7.128;2023-03-01T00:32:43;7.20;;;6.20;;
12151;SDS011;6139;51.274;7.128;2023-03-01T00:33:45;8.17;;;6.40;;
12151;SDS011;6139;51.274;7.128;2023-03-01T00:34:46;6.80;;;6.13;;
12151;SDS011;6139;51.274;7.128;2023-03-01T00:35:54;8.17;;;6.33;;
12151;SDS011;6139;51.274;7.128;2023-03-01T00:36:55;7.47;;;6.53;;
12151;SDS011;6139;51.274;7.128;2023-03-01T00:38:05;6.37;;;5.60;;
12151;SDS011;6139;51.274;7.128;2023-03-01T00:39:07;7.50;;;6.10;;
12151;SDS011;6139;51.274;7.128;2023-03-01T00:40:13;8.07;;;6.53;;
12151;SDS011;6139;51.274;7.128;2023-03-01T00:41:16;6.43;;;5.43;;
12151;SDS011;6139;51.274;7.128;2023-03-01T00:42:20;8.60;;;6.60;;
12151;SDS011;6139;51.274;7.128;2023-03-01T00:43:22;8.47;;;6.57;;
12151;SDS011;6139;51.274;7.128;2023-03-01T00:44:23;7.50;;;6.00;;
12151;SDS011;6139;51.274;7.128;2023-03-01T00:45:25;7.73;;;5.77;;
12151;SDS011;6139;51.274;7.128;2023-03-01T00:46:26;8.23;;;6.17;;
12151;SDS011;6139;51.274;7.128;2023-03-01T00:47:30;8.80;;;6.10;;
12151;SDS011;6139;51.274;7.128;2023-03-01T00:48:32;8.90;;;6.37;;
12151;SDS011;6139;51.274;7.128;2023-03-01T00:49:35;8.23;;;6.00;;
12151;SDS011;6139;51.274;7.128;2023-03-01T00:50:36;8.17;;;6.27;;
12151;SDS011;6139;51.274;7.128;2023-03-01T00:51:38;8.30;;;7.00;;
12151;SDS011;6139;51.274;7.128;2023-03-01T00:52:41;7.67;;;6.77;;
12151;SDS011;6139;51.274;7.128;2023-03-01T00:53:42;7.90;;;6.43;;
12151;SDS011;6139;51.274;7.128;2023-03-01T00:54:45;9.33;;;6.87;;
12151;SDS011;6139;51.274;7.128;2023-03-01T00:55:46;8.27;;;6.40;;
12151;SDS011;6139;51.274;7.128;2023-03-01T00:56:48;8.47;;;6.40;;
12151;SDS011;6139;51.274;7.128;2023-03-01T00:57:49;8.73;;;6.80;;
12151;SDS011;6139;51.274;7.128;2023-03-01T00:58:51;8.60;;;6.40;;
12151;SDS011;6139;51.274;7.128;2023-03-01T00:59:53;9.97;;;6.93;;
12151;SDS011;6139;51.274;7.128;2023-03-01T01:00:54;7.37;;;6.33;;
12151;SDS011;6139;51.274;7.128;2023-03-01T01:01:55;7.87;;;6.70;;
12151;SDS011;6139;51.274;7.128;2023-03-01T01:02:59;9.03;;;7.13;;
12151;SDS011;6139;51.274;7.128;2023-03-01T01:04:03;6.97;;;6.27;;
12151;SDS011;6139;51.274;7.128;2023-03-01T01:05:06;10.60;;;7.10;;
12151;SDS011;6139;51.274;7.128;2023-03-01T01:06:12;8.97;;;6.27;;
12151;SDS011;6139;51.274;7.128;2023-03-01T01:07:15;7.93;;;6.77;;
12151;SDS011;6139;51.274;7.128;2023-03-01T01:08:16;8.77;;;7.00;;
12151;SDS011;6139;51.274;7.128;2023-03-01T01:09:18;7.90;;;6.77;;
12151;SDS011;6139;51.274;7.128;2023-03-01T01:10:19;10.63;;;7.33;;
12151;SDS011;6139;51.274;7.128;2023-03-01T01:11:21;7.60;;;6.60;;
12151;SDS011;6139;51.274;7.128;2023-03-01T01:12:23;8.60;;;7.40;;
12151;SDS011;6139;51.274;7.128;2023-03-01T01:13:25;7.60;;;6.80;;
12151;SDS011;6139;51.274;7.128;2023-03-01T01:14:26;8.50;;;6.40;;
12151;SDS011;6139;51.274;7.128;2023-03-01T01:15:28;7.33;;;6.27;;
12151;SDS011;6139;51.274;7.128;2023-03-01T01:16:29;8.17;;;6.93;;
12151;SDS011;6139;51.274;7.128;2023-03-01T01:17:31;7.47;;;6.70;;
12151;SDS011;6139;51.274;7.128;2023-03-01T01:18:32;8.13;;;7.03;;
12151;SDS011;6139;51.274;7.128;2023-03-01T01:19:35;13.57;;;6.57;;
12151;SDS011;6139;51.274;7.128;2023-03-01T01:20:37;7.83;;;7.00;;
12151;SDS011;6139;51.274;7.128;2023-03-01T01:21:39;8.20;;;6.57;;
12151;SDS011;6139;51.274;7.128;2023-03-01T01:22:40;8.30;;;6.90;;
12151;SDS011;6139;51.274;7.128;2023-03-01T01:23:42;7.80;;;7.00;;
12151;SDS011;6139;51.274;7.128;2023-03-01T01:24:45;8.67;;;7.03;;
12151;SDS011;6139;51.274;7.128;2023-03-01T01:25:47;11.83;;;7.63;;
12151;SDS011;6139;51.274;7.128;2023-03-01T01:26:48;8.90;;;6.90;;
12151;SDS011;6139;51.274;7.128;2023-03-01T01:27:51;8.33;;;6.87;;
12151;SDS011;6139;51.274;7.128;2023-03-01T01:28:52;9.13;;;7.60;;
12151;SDS011;6139;51.274;7.128;2023-03-01T01:29:54;9.23;;;7.23;;
12151;SDS011;6139;51.274;7.128;2023-03-01T01:30:55;7.97;;;6.90;;
12151;SDS011;6139;51.274;7.128;2023-03-01T01:31:57;9.20;;;7.30;;
12151;SDS011;6139;51.274;7.128;2023-03-01T01:32:59;9.93;;;7.47;;
12151;SDS011;6139;51.274;7.128;2023-03-01T01:34:01;8.80;;;7.30;;
12151;SDS011;6139;51.274;7.128;2023-03-01T01:35:07;9.67;;;7.17;;
12151;SDS011;6139;51.274;7.128;2023-03-01T01:36:08;7.70;;;6.77;;
12151;SDS011;6139;51.274;7.128;2023-03-01T01:37:10;7.73;;;6.80;;
12151;SDS011;6139;51.274;7.128;2023-03-01T01:38:11;8.97;;;7.90;;
12151;SDS011;6139;51.274;7.128;2023-03-01T01:39:13;9.20;;;6.87;;
12151;SDS011;6139;51.274;7.128;2023-03-01T01:40:14;9.43;;;6.83;;
12151;SDS011;6139;51.274;7.128;2023-03-01T01:41:16;8.03;;;6.90;;
12151;SDS011;6139;51.274;7.128;2023-03-01T01:42:18;9.93;;;7.53;;
12151;SDS011;6139;51.274;7.128;2023-03-01T01:43:22;8.70;;;6.87;;
12151;SDS011;6139;51.274;7.128;2023-03-01T01:44:24;11.10;;;7.13;;
12151;SDS011;6139;51.274;7.128;2023-03-01T01:45:29;10.17;;;7.10;;
12151;SDS011;6139;51.274;7.128;2023-03-01T01:46:32;7.30;;;6.60;;
12151;SDS011;6139;51.274;7.128;2023-03-01T01:47:36;8.10;;;7.03;;
12151;SDS011;6139;51.274;7.128;2023-03-01T01:48:39;8.83;;;7.07;;
12151;SDS011;6139;51.274;7.128;2023-03-01T01:49:45;8.23;;;7.40;;
12151;SDS011;6139;51.274;7.128;2023-03-01T01:50:51;7.67;;;6.87;;
12151;SDS011;6139;51.274;7.128;2023-03-01T01:52:07;10.73;;;7.50;;
12151;SDS011;6139;51.274;7.128;2023-03-01T01:53:12;8.50;;;6.63;;
12151;SDS011;6139;51.274;7.128;2023-03-01T01:54:19;8.07;;;6.90;;
12151;SDS011;6139;51.274;7.128;2023-03-01T01:55:24;10.53;;;8.10;;
12151;SDS011;6139;51.274;7.128;2023-03-01T01:56:28;9.17;;;7.23;;
12151;SDS011;6139;51.274;7.128;2023-03-01T01:57:32;7.83;;;7.03;;
12151;SDS011;6139;51.274;7.128;2023-03-01T01:58:37;7.87;;;7.07;;
12151;SDS011;6139;51.274;7.128;2023-03-01T01:59:39;11.80;;;7.93;;
12151;SDS011;6139;51.274;7.128;2023-03-01T02:00:43;8.90;;;7.33;;
12151;SDS011;6139;51.274;7.128;2023-03-01T02:01:44;7.80;;;6.93;;
12151;SDS011;6139;51.274;7.128;2023-03-01T02:02:47;8.83;;;7.07;;
12151;SDS011;6139;51.274;7.128;2023-03-01T02:03:51;8.80;;;7.40;;
12151;SDS011;6139;51.274;7.128;2023-03-01T02:04:55;8.73;;;7.03;;
12151;SDS011;6139;51.274;7.128;2023-03-01T02:06:06;8.30;;;7.00;;
12151;SDS011;6139;51.274;7.128;2023-03-01T02:07:14;8.43;;;6.97;;
12151;SDS011;6139;51.274;7.128;2023-03-01T02:08:16;8.70;;;7.00;;
12151;SDS011;6139;51.274;7.128;2023-03-01T02:09:20;10.13;;;7.73;;
12151;SDS011;6139;51.274;7.128;2023-03-01T02:10:23;10.77;;;7.47;;
12151;SDS011;6139;51.274;7.128;2023-03-01T02:11:25;8.83;;;7.47;;
12151;SDS011;6139;51.274;7.128;2023-03-01T02:12:28;8.80;;;7.53;;
12151;SDS011;6139;51.274;7.128;2023-03-01T02:13:31;10.70;;;7.67;;
12151;SDS011;6139;51.274;7.128;2023-03-01T02:14:32;11.23;;;7.80;;
12151;SDS011;6139;51.274;7.128;2023-03-01T02:15:35;11.23;;;8.00;;
12151;SDS011;6139;51.274;7.128;2023-03-01T02:16:37;9.03;;;7.97;;
12151;SDS011;6139;51.274;7.128;2023-03-01T02:17:39;9.87;;;7.77;;
12151;SDS011;6139;51.274;7.128;2023-03-01T02:18:42;9.30;;;7.90;;
12151;SDS011;6139;51.274;7.128;2023-03-01T02:19:47;10.17;;;7.70;;
12151;SDS011;6139;51.274;7.128;2023-03-01T02:21:04;9.00;;;7.67;;
12151;SDS011;6139;51.274;7.128;2023-03-01T02:22:14;9.10;;;7.63;;
12151;SDS011;6139;51.274;7.128;2023-03-01T02:23:22;9.77;;;7.87;;
12151;SDS011;6139;51.274;7.128;2023-03-01T02:24:27;9.33;;;7.33;;
12151;SDS011;6139;51.274;7.128;2023-03-01T02:25:35;11.47;;;7.40;;
12151;SDS011;6139;51.274;7.128;2023-03-01T02:26:45;10.03;;;7.20;;
12151;SDS011;6139;51.274;7.128;2023-03-01T02:27:57;9.03;;;7.50;;
12151;SDS011;6139;51.274;7.128;2023-03-01T02:29:05;10.97;;;7.87;;
12151;SDS011;6139;51.274;7.128;2023-03-01T02:30:07;8.67;;;7.17;;
12151;SDS011;6139;51.274;7.128;2023-03-01T02:31:14;9.47;;;7.53;;
12151;SDS011;6139;51.274;7.128;2023-03-01T02:32:36;8.67;;;7.13;;
12151;SDS011;6139;51.274;7.128;2023-03-01T02:33:37;10.63;;;7.50;;
12151;SDS011;6139;51.274;7.128;2023-03-01T02:34:40;9.60;;;7.27;;
12151;SDS011;6139;51.274;7.128;2023-03-01T02:35:42;8.63;;;7.60;;
12151;SDS011;6139;51.274;7.128;2023-03-01T02:36:44;10.00;;;7.50;;
12151;SDS011;6139;51.274;7.128;2023-03-01T02:37:47;8.93;;;7.20;;
12151;SDS011;6139;51.274;7.128;2023-03-01T02:38:50;10.40;;;7.57;;
12151;SDS011;6139;51.274;7.128;2023-03-01T02:39:55;8.57;;;7.13;;
12151;SDS011;6139;51.274;7.128;2023-03-01T02:41:00;10.13;;;7.80;;
12151;SDS011;6139;51.274;7.128;2023-03-01T02:42:03;10.03;;;8.00;;
12151;SDS011;6139;51.274;7.128;2023-03-01T02:43:08;9.30;;;7.70;;
12151;SDS011;6139;51.274;7.128;2023-03-01T02:44:11;11.73;;;8.10;;
12151;SDS011;6139;51.274;7.128;2023-03-01T02:45:13;8.77;;;7.87;;
12151;SDS011;6139;51.274;7.128;2023-03-01T02:46:15;10.93;;;8.50;;
12151;SDS011;6139;51.274;7.128;2023-03-01T02:47:18;8.90;;;8.00;;
12151;SDS011;6139;51.274;7.128;2023-03-01T02:48:20;9.37;;;7.63;;
12151;SDS011;6139;51.274;7.128;2023-03-01T02:49:24;8.73;;;7.83;;
12151;SDS011;6139;51.274;7.128;2023-03-01T02:50:35;8.47;;;7.57;;
12151;SDS011;6139;51.274;7.128;2023-03-01T02:51:51;9.60;;;7.73;;
12151;SDS011;6139;51.274;7.128;2023-03-01T02:53:11;10.37;;;8.03;;
12151;SDS011;6139;51.274;7.128;2023-03-01T02:54:19;9.37;;;7.40;;
12151;SDS011;6139;51.274;7.128;2023-03-01T02:55:25;10.70;;;7.43;;
12151;SDS011;6139;51.274;7.128;2023-03-01T02:56:28;12.67;;;8.40;;
12151;SDS011;6139;51.274;7.128;2023-03-01T02:57:30;10.47;;;8.27;;
12151;SDS011;6139;51.274;7.128;2023-03-01T02:58:33;11.50;;;8.40;;
12151;SDS011;6139;51.274;7.128;2023-03-01T02:59:47;11.53;;;8.30;;
12151;SDS011;6139;51.274;7.128;2023-03-01T03:00:50;9.27;;;8.10;;
12151;SDS011;6139;51.274;7.128;2023-03-01T03:01:51;9.90;;;7.67;;
12151;SDS011;6139;51.274;7.128;2023-03-01T03:02:54;10.00;;;7.73;;
12151;SDS011;6139;51.274;7.128;2023-03-01T03:03:59;9.90;;;8.10;;
12151;SDS011;6139;51.274;7.128;2023-03-01T03:05:03;11.17;;;8.40;;
12151;SDS011;6139;51.274;7.128;2023-03-01T03:06:06;10.67;;;8.17;;
12151;SDS011;6139;51.274;7.128;2023-03-01T03:07:08;10.30;;;8.20;;
12151;SDS011;6139;51.274;7.128;2023-03-01T03:08:09;11.27;;;7.63;;
12151;SDS011;6139;51.274;7.128;2023-03-01T03:09:12;9.40;;;8.07;;
12151;SDS011;6139;51.274;7.128;2023-03-01T03:10:14;9.10;;;7.93;;
12151;SDS011;6139;51.274;7.128;2023-03-01T03:11:19;9.93;;;8.17;;
12151;SDS011;6139;51.274;7.128;2023-03-01T03:12:21;11.83;;;8.90;;
12151;SDS011;6139;51.274;7.128;2023-03-01T03:13:23;10.63;;;8.23;;
12151;SDS011;6139;51.274;7.128;2023-03-01T03:14:28;10.47;;;8.70;;
12151;SDS011;6139;51.274;7.128;2023-03-01T03:15:36;10.83;;;7.93;;
12151;SDS011;6139;51.274;7.128;2023-03-01T03:16:39;10.53;;;8.27;;
12151;SDS011;6139;51.274;7.128;2023-03-01T03:17:42;11.37;;;8.40;;
12151;SDS011;6139;51.274;7.128;2023-03-01T03:18:43;10.70;;;8.47;;
12151;SDS011;6139;51.274;7.128;2023-03-01T03:19:45;11.87;;;8.33;;
12151;SDS011;6139;51.274;7.128;2023-03-01T03:20:46;10.53;;;8.13;;
12151;SDS011;6139;51.274;7.128;2023-03-01T03:21:52;10.70;;;7.77;;
12151;SDS011;6139;51.274;7.128;2023-03-01T03:22:54;10.00;;;8.00;;
12151;SDS011;6139;51.274;7.128;2023-03-01T03:23:56;11.73;;;9.57;;
12151;SDS011;6139;51.274;7.128;2023-03-01T03:24:57;9.90;;;8.00;;
12151;SDS011;6139;51.274;7.128;2023-03-01T03:25:59;10.23;;;8.27;;
12151;SDS011;6139;51.274;7.128;2023-03-01T03:27:00;10.50;;;8.27;;
12151;SDS011;6139;51.274;7.128;2023-03-01T03:28:02;10.97;;;8.67;;
12151;SDS011;6139;51.274;7.128;2023-03-01T03:29:09;13.27;;;8.47;;
12151;SDS011;6139;51.274;7.128;2023-03-01T03:30:12;10.57;;;8.20;;
12151;SDS011;6139;51.274;7.128;2023-03-01T03:31:16;12.17;;;8.20;;
12151;SDS011;6139;51.274;7.128;2023-03-01T03:32:18;11.40;;;8.57;;
12151;SDS011;6139;51.274;7.128;2023-03-01T03:33:19;9.57;;;7.90;;
12151;SDS011;6139;51.274;7.128;2023-03-01T03:34:21;10.50;;;8.40;;
12151;SDS011;6139;51.274;7.128;2023-03-01T03:35:23;9.50;;;8.10;;
12151;SDS011;6139;51.274;7.128;2023-03-01T03:36:26;11.23;;;8.23;;
12151;SDS011;6139;51.274;7.128;2023-03-01T03:37:27;9.17;;;8.10;;
12151;SDS011;6139;51.274;7.128;2023-03-01T03:38:47;11.20;;;8.40;;
12151;SDS011;6139;51.274;7.128;2023-03-01T03:39:49;11.50;;;8.87;;
12151;SDS011;6139;51.274;7.128;2023-03-01T03:40:59;11.13;;;8.67;;
12151;SDS011;6139;51.274;7.128;2023-03-01T03:42:02;11.07;;;8.30;;
12151;SDS011;6139;51.274;7.128;2023-03-01T03:43:04;10.10;;;8.33;;
12151;SDS011;6139;51.274;7.128;2023-03-01T03:44:07;11.03;;;8.37;;
12151;SDS011;6139;51.274;7.128;2023-03-01T03:45:08;10.23;;;8.40;;
12151;SDS011;6139;51.274;7.128;2023-03-01T03:46:10;11.07;;;8.80;;
12151;SDS011;6139;51.274;7.128;2023-03-01T03:47:14;13.50;;;8.30;;
12151;SDS011;6139;51.274;7.128;2023-03-01T03:48:16;11.60;;;8.30;;
12151;SDS011;6139;51.274;7.128;2023-03-01T03:49:17;10.37;;;8.10;;
12151;SDS011;6139;51.274;7.128;2023-03-01T03:50:19;10.17;;;8.10;;
12151;SDS011;6139;51.274;7.128;2023-03-01T03:51:20;10.53;;;8.57;;
12151;SDS011;6139;51.274;7.128;2023-03-01T03:52:23;9.70;;;8.10;;
12151;SDS011;6139;51.274;7.128;2023-03-01T03:53:27;10.57;;;8.60;;
12151;SDS011;6139;51.274;7.128;2023-03-01T03:54:30;9.47;;;7.77;;
12151;SDS011;6139;51.274;7.128;2023-03-01T03:55:31;10.43;;;8.63;;
12151;SDS011;6139;51.274;7.128;2023-03-01T03:56:34;11.50;;;8.37;;
12151;SDS011;6139;51.274;7.128;2023-03-01T03:57:35;10.27;;;8.30;;
12151;SDS011;6139;51.274;7.128;2023-03-01T03:58:37;10.13;;;8.10;;
12151;SDS011;6139;51.274;7.128;2023-03-01T03:59:39;10.13;;;8.63;;
12151;SDS011;6139;51.274;7.128;2023-03-01T04:00:41;10.57;;;8.50;;
12151;SDS011;6139;51.274;7.128;2023-03-01T04:01:44;11.03;;;8.30;;
12151;SDS011;6139;51.274;7.128;2023-03-01T04:02:47;10.47;;;8.03;;
12151;SDS011;6139;51.274;7.128;2023-03-01T04:03:48;8.97;;;7.87;;
12151;SDS011;6139;51.274;7.128;2023-03-01T04:04:54;9.77;;;8.47;;
12151;SDS011;6139;51.274;7.128;2023-03-01T04:05:56;9.70;;;8.10;;
12151;SDS011;6139;51.274;7.128;2023-03-01T04:06:59;10.03;;;8.50;;
12151;SDS011;6139;51.274;7.128;2023-03-01T04:08:00;9.63;;;7.67;;
12151;SDS011;6139;51.274;7.128;2023-03-01T04:09:02;10.37;;;8.30;;
12151;SDS011;6139;51.274;7.128;2023-03-01T04:10:05;10.43;;;8.20;;
12151;SDS011;6139;51.274;7.128;2023-03-01T04:11:08;12.33;;;8.60;;
12151;SDS011;6139;51.274;7.128;2023-03-01T04:12:28;11.07;;;8.53;;
12151;SDS011;6139;51.274;7.128;2023-03-01T04:13:29;10.33;;;8.70;;
12151;SDS011;6139;51.274;7.128;2023-03-01T04:14:31;13.73;;;8.60;;
12151;SDS011;6139;51.274;7.128;2023-03-01T04:15:33;13.03;;;8.30;;
12151;SDS011;6139;51.274;7.128;2023-03-01T04:16:36;15.37;;;8.27;;
12151;SDS011;6139;51.274;7.128;2023-03-01T04:17:37;10.97;;;8.70;;
12151;SDS011;6139;51.274;7.128;2023-03-01T04:18:40;11.40;;;8.70;;
12151;SDS011;6139;51.274;7.128;2023-03-01T04:19:41;10.00;;;8.10;;
12151;SDS011;6139;51.274;7.128;2023-03-01T04:20:44;11.07;;;8.47;;
12151;SDS011;6139;51.274;7.128;2023-03-01T04:21:45;11.27;;;9.07;;
12151;SDS011;6139;51.274;7.128;2023-03-01T04:22:47;12.57;;;8.40;;
12151;SDS011;6139;51.274;7.128;2023-03-01T04:23:48;10.87;;;8.83;;
12151;SDS011;6139;51.274;7.128;2023-03-01T04:24:52;10.10;;;8.50;;
12151;SDS011;6139;51.274;7.128;2023-03-01T04:25:54;11.77;;;8.47;;
12151;SDS011;6139;51.274;7.128;2023-03-01T04:26:57;12.77;;;8.97;;
12151;SDS011;6139;51.274;7.128;2023-03-01T04:27:58;13.40;;;9.43;;
12151;SDS011;6139;51.274;7.128;2023-03-01T04:28:59;10.17;;;8.63;;
12151;SDS011;6139;51.274;7.128;2023-03-01T04:30:02;12.43;;;8.80;;
12151;SDS011;6139;51.274;7.128;2023-03-01T04:31:05;11.40;;;9.47;;
12151;SDS011;6139;51.274;7.128;2023-03-01T04:32:13;11.80;;;8.87;;
12151;SDS011;6139;51.274;7.128;2023-03-01T04:33:16;12.43;;;9.17;;
12151;SDS011;6139;51.274;7.128;2023-03-01T04:34:20;12.40;;;8.87;;
12151;SDS011;6139;51.274;7.128;2023-03-01T04:35:20;11.23;;;9.17;;
12151;SDS011;6139;51.274;7.128;2023-03-01T04:36:24;11.87;;;9.03;;
12151;SDS011;6139;51.274;7.128;2023-03-01T04:37:26;11.10;;;8.70;;
12151;SDS011;6139;51.274;7.128;2023-03-01T04:38:29;10.57;;;8.50;;
12151;SDS011;6139;51.274;7.128;2023-03-01T04:39:30;10.33;;;8.43;;
12151;SDS011;6139;51.274;7.128;2023-03-01T04:40:33;9.93;;;8.83;;
12151;SDS011;6139;51.274;7.128;2023-03-01T04:41:34;12.20;;;9.10;;
12151;SDS011;6139;51.274;7.128;2023-03-01T04:42:36;10.13;;;8.60;;
12151;SDS011;6139;51.274;7.128;2023-03-01T04:43:37;11.43;;;9.33;;
12151;SDS011;6139;51.274;7.128;2023-03-01T04:44:39;10.63;;;8.63;;
12151;SDS011;6139;51.274;7.128;2023-03-01T04:45:40;10.83;;;9.13;;
12151;SDS011;6139;51.274;7.128;2023-03-01T04:46:42;10.27;;;8.43;;
12151;SDS011;6139;51.274;7.128;2023-03-01T04:47:44;10.00;;;8.70;;
12151;SDS011;6139;51.274;7.128;2023-03-01T04:48:47;10.77;;;8.97;;
12151;SDS011;6139;51.274;7.128;2023-03-01T04:49:49;11.53;;;9.33;;
12151;SDS011;6139;51.274;7.128;2023-03-01T04:50:51;10.90;;;8.57;;
12151;SDS011;6139;51.274;7.128;2023-03-01T04:51:52;10.80;;;9.23;;
12151;SDS011;6139;51.274;7.128;2023-03-01T04:52:54;10.83;;;8.57;;
12151;SDS011;6139;51.274;7.128;2023-03-01T04:53:58;10.43;;;8.63;;
12151;SDS011;6139;51.274;7.128;2023-03-01T04:55:01;11.97;;;8.27;;
12151;SDS011;6139;51.274;7.128;2023-03-01T04:56:04;10.67;;;8.30;;
12151;SDS011;6139;51.274;7.128;2023-03-01T04:57:06;10.43;;;8.93;;
12151;SDS011;6139;51.274;7.128;2023-03-01T04:58:07;11.00;;;9.17;;
12151;SDS011;6139;51.274;7.128;2023-03-01T04:59:09;11.47;;;9.07;;
12151;SDS011;6139;51.274;7.128;2023-03-01T05:00:13;11.23;;;8.73;;
12151;SDS011;6139;51.274;7.128;2023-03-01T05:01:21;11.17;;;8.70;;
12151;SDS011;6139;51.274;7.128;2023-03-01T05:02:22;11.73;;;9.20;;
12151;SDS011;6139;51.274;7.128;2023-03-01T05:03:24;12.20;;;9.20;;
12151;SDS011;6139;51.274;7.128;2023-03-01T05:04:25;11.47;;;8.80;;
12151;SDS011;6139;51.274;7.128;2023-03-01T05:05:29;10.00;;;8.10;;
12151;SDS011;6139;51.274;7.128;2023-03-01T05:06:31;12.17;;;8.90;;
12151;SDS011;6139;51.274;7.128;2023-03-01T05:07:34;10.63;;;8.43;;
12151;SDS011;6139;51.274;7.128;2023-03-01T05:08:34;10.43;;;8.70;;
12151;SDS011;6139;51.274;7.128;2023-03-01T05:09:38;11.67;;;8.53;;
12151;SDS011;6139;51.274;7.128;2023-03-01T05:10:39;11.27;;;8.70;;
12151;SDS011;6139;51.274;7.128;2023-03-01T05:11:42;11.60;;;8.20;;
12151;SDS011;6139;51.274;7.128;2023-03-01T05:12:43;10.97;;;8.87;;
12151;SDS011;6139;51.274;7.128;2023-03-01T05:13:44;11.37;;;8.67;;
12151;SDS011;6139;51.274;7.128;2023-03-01T05:14:45;12.73;;;9.53;;
12151;SDS011;6139;51.274;7.128;2023-03-01T05:15:47;9.83;;;8.43;;
12151;SDS011;6139;51.274;7.128;2023-03-01T05:16:49;11.23;;;8.70;;
12151;SDS011;6139;51.274;7.128;2023-03-01T05:17:51;10.07;;;8.40;;
12151;SDS011;6139;51.274;7.128;2023-03-01T05:18:52;10.97;;;8.57;;
12151;SDS011;6139;51.274;7.128;2023-03-01T05:19:55;13.07;;;9.17;;
12151;SDS011;6139;51.274;7.128;2023-03-01T05:21:03;14.33;;;8.90;;
12151;SDS011;6139;51.274;7.128;2023-03-01T05:22:07;9.60;;;8.27;;
12151;SDS011;6139;51.274;7.128;2023-03-01T05:23:08;11.60;;;9.10;;
12151;SDS011;6139;51.274;7.128;2023-03-01T05:24:10;12.17;;;8.80;;
12151;SDS011;6139;51.274;7.128;2023-03-01T05:25:11;10.63;;;8.77;;
12151;SDS011;6139;51.274;7.128;2023-03-01T05:26:14;11.77;;;9.40;;
12151;SDS011;6139;51.274;7.128;2023-03-01T05:27:17;11.47;;;8.73;;
12151;SDS011;6139;51.274;7.128;2023-03-01T05:28:22;11.43;;;9.00;;
12151;SDS011;6139;51.274;7.128;2023-03-01T05:29:24;14.03;;;9.63;;
12151;SDS011;6139;51.274;7.128;2023-03-01T05:30:26;12.73;;;9.40;;
12151;SDS011;6139;51.274;7.128;2023-03-01T05:31:28;13.07;;;9.07;;
12151;SDS011;6139;51.274;7.128;2023-03-01T05:32:30;10.20;;;8.90;;
12151;SDS011;6139;51.274;7.128;2023-03-01T05:33:32;12.50;;;8.43;;
12151;SDS011;6139;51.274;7.128;2023-03-01T05:34:34;9.80;;;8.57;;
12151;SDS011;6139;51.274;7.128;2023-03-01T05:35:36;13.40;;;9.13;;
12151;SDS011;6139;51.274;7.128;2023-03-01T05:36:40;11.27;;;9.03;;
12151;SDS011;6139;51.274;7.128;2023-03-01T05:37:41;12.33;;;10.10;;
12151;SDS011;6139;51.274;7.128;2023-03-01T05:38:43;12.47;;;9.90;;
12151;SDS011;6139;51.274;7.128;2023-03-01T05:39:44;14.33;;;9.17;;
12151;SDS011;6139;51.274;7.128;2023-03-01T05:40:47;11.67;;;9.63;;
12151;SDS011;6139;51.274;7.128;2023-03-01T05:41:51;10.83;;;9.37;;
12151;SDS011;6139;51.274;7.128;2023-03-01T05:42:54;13.40;;;9.30;;
12151;SDS011;6139;51.274;7.128;2023-03-01T05:43:56;11.80;;;9.30;;
12151;SDS011;6139;51.274;7.128;2023-03-01T05:44:58;10.40;;;8.87;;
12151;SDS011;6139;51.274;7.128;2023-03-01T05:45:59;11.30;;;9.27;;
12151;SDS011;6139;51.274;7.128;2023-03-01T05:47:01;12.43;;;9.43;;
12151;SDS011;6139;51.274;7.128;2023-03-01T05:48:02;10.10;;;8.50;;
12151;SDS011;6139;51.274;7.128;2023-03-01T05:49:05;11.83;;;9.90;;
12151;SDS011;6139;51.274;7.128;2023-03-01T05:50:06;12.17;;;9.33;;
12151;SDS011;6139;51.274;7.128;2023-03-01T05:51:09;12.43;;;8.77;;
12151;SDS011;6139;51.274;7.128;2023-03-01T05:52:13;14.17;;;9.70;;
12151;SDS011;6139;51.274;7.128;2023-03-01T05:53:16;12.73;;;9.87;;
12151;SDS011;6139;51.274;7.128;2023-03-01T05:54:19;11.27;;;9.30;;
12151;SDS011;6139;51.274;7.128;2023-03-01T05:55:20;12.87;;;9.33;;
12151;SDS011;6139;51.274;7.128;2023-03-01T05:56:23;10.57;;;9.37;;
12151;SDS011;6139;51.274;7.128;2023-03-01T05:57:24;13.13;;;9.57;;
12151;SDS011;6139;51.274;7.128;2023-03-01T05:58:28;11.97;;;9.80;;
12151;SDS011;6139;51.274;7.128;2023-03-01T05:59:29;11.20;;;9.37;;
12151;SDS011;6139;51.274;7.128;2023-03-01T06:00:31;12.07;;;10.23;;
12151;SDS011;6139;51.274;7.128;2023-03-01T06:01:33;12.47;;;9.10;;
12151;SDS011;6139;51.274;7.128;2023-03-01T06:02:35;13.47;;;9.57;;
12151;SDS011;6139;51.274;7.128;2023-03-01T06:03:38;10.53;;;9.07;;
12151;SDS011;6139;51.274;7.128;2023-03-01T06:04:39;11.03;;;9.33;;
12151;SDS011;6139;51.274;7.128;2023-03-01T06:05:41;13.77;;;9.43;;
12151;SDS011;6139;51.274;7.128;2023-03-01T06:06:43;13.13;;;9.80;;
12151;SDS011;6139;51.274;7.128;2023-03-01T06:07:45;12.63;;;9.23;;
12151;SDS011;6139;51.274;7.128;2023-03-01T06:08:47;13.40;;;9.37;;
12151;SDS011;6139;51.274;7.128;2023-03-01T06:09:48;13.20;;;9.63;;
12151;SDS011;6139;51.274;7.128;2023-03-01T06:10:50;13.87;;;10.13;;
12151;SDS011;6139;51.274;7.128;2023-03-01T06:11:51;12.23;;;9.57;;
12151;SDS011;6139;51.274;7.128;2023-03-01T06:12:53;13.63;;;9.57;;
12151;SDS011;6139;51.274;7.128;2023-03-01T06:13:54;10.60;;;9.30;;
12151;SDS011;6139;51.274;7.128;2023-03-01T06:14:56;13.40;;;10.00;;
12151;SDS011;6139;51.274;7.128;2023-03-01T06:15:57;11.77;;;9.50;;
12151;SDS011;6139;51.274;7.128;2023-03-01T06:16:59;11.90;;;8.53;;
12151;SDS011;6139;51.274;7.128;2023-03-01T06:18:00;12.07;;;9.27;;
12151;SDS011;6139;51.274;7.128;2023-03-01T06:19:02;12.03;;;9.77;;
12151;SDS011;6139;51.274;7.128;2023-03-01T06:20:03;11.13;;;9.70;;
12151;SDS011;6139;51.274;7.128;2023-03-01T06:21:07;12.70;;;10.10;;
12151;SDS011;6139;51.274;7.128;2023-03-01T06:22:08;12.33;;;9.57;;